sensor_id;sensor_type;location;lat;lon;timestamp;P1;durP1;ratioP1;P2;durP2;ratioP2
72113;SDS011;59989;46.220;19.888;2023-05-24T00:02:30;1.40;;;0.40;;
72113;SDS011;59989;46.220;19.888;2023-05-24T00:05:33;1.93;;;0.73;;
72113;SDS011;59989;46.220;19.888;2023-05-24T00:08:38;0.90;;;0.30;;
72113;SDS011;59989;46.220;19.888;2023-05-24T00:11:41;1.17;;;0.38;;
72113;SDS011;59989;46.220;19.888;2023-05-24T00:14:43;1.52;;;0.57;;
72113;SDS011;59989;46.220;19.888;2023-05-24T00:17:46;1.38;;;0.45;;
72113;SDS011;59989;46.220;19.888;2023-05-24T00:20:48;0.80;;;0.30;;
72113;SDS011;59989;46.220;19.888;2023-05-24T00:23:52;1.92;;;0.73;;
72113;SDS011;59989;46.220;19.888;2023-05-24T00:26:55;1.00;;;0.40;;
72113;SDS011;59989;46.220;19.888;2023-05-24T00:29:57;1.83;;;0.65;;
72113;SDS011;59989;46.220;19.888;2023-05-24T00:33:01;1.15;;;0.45;;
72113;SDS011;59989;46.220;19.888;2023-05-24T00:36:04;1.07;;;0.37;;
72113;SDS011;59989;46.220;19.888;2023-05-24T00:39:07;0.80;;;0.30;;
72113;SDS011;59989;46.220;19.888;2023-05-24T00:42:09;1.27;;;0.50;;
72113;SDS011;59989;46.220;19.888;2023-05-24T00:45:12;1.20;;;0.40;;
72113;SDS011;59989;46.220;19.888;2023-05-24T00:48:15;1.35;;;0.50;;
72113;SDS011;59989;46.220;19.888;2023-05-24T00:51:17;0.80;;;0.30;;
72113;SDS011;59989;46.220;19.888;2023-05-24T00:54:20;1.52;;;0.50;;
72113;SDS011;59989;46.220;19.888;2023-05-24T00:57:25;1.90;;;0.60;;
72113;SDS011;59989;46.220;19.888;2023-05-24T01:00:28;0.93;;;0.30;;
72113;SDS011;59989;46.220;19.888;2023-05-24T01:03:31;1.13;;;0.40;;
72113;SDS011;59989;46.220;19.888;2023-05-24T01:06:37;1.63;;;0.57;;
72113;SDS011;59989;46.220;19.888;2023-05-24T01:17:25;1.00;;;0.40;;
72113;SDS011;59989;46.220;19.888;2023-05-24T01:20:22;1.00;;;0.40;;
72113;SDS011;59989;46.220;19.888;2023-05-24T01:30:15;1.23;;;0.50;;
72113;SDS011;59989;46.220;19.888;2023-05-24T01:33:18;0.98;;;0.30;;
72113;SDS011;59989;46.220;19.888;2023-05-24T01:36:22;1.92;;;0.80;;
72113;SDS011;59989;46.220;19.888;2023-05-24T01:39:26;1.27;;;0.47;;
72113;SDS011;59989;46.220;19.888;2023-05-24T01:46:28;0.75;;;0.30;;
72113;SDS011;59989;46.220;19.888;2023-05-24T01:49:39;0.93;;;0.30;;
72113;SDS011;59989;46.220;19.888;2023-05-24T01:52:46;0.98;;;0.32;;
72113;SDS011;59989;46.220;19.888;2023-05-24T01:55:53;1.50;;;0.50;;
72113;SDS011;59989;46.220;19.888;2023-05-24T01:58:58;1.27;;;0.38;;
72113;SDS011;59989;46.220;19.888;2023-05-24T02:02:01;1.27;;;0.43;;
72113;SDS011;59989;46.220;19.888;2023-05-24T02:05:04;1.00;;;0.40;;
72113;SDS011;59989;46.220;19.888;2023-05-24T02:08:09;0.70;;;0.30;;
72113;SDS011;59989;46.220;19.888;2023-05-24T02:11:12;0.60;;;0.20;;
72113;SDS011;59989;46.220;19.888;2023-05-24T02:14:15;0.82;;;0.30;;
72113;SDS011;59989;46.220;19.888;2023-05-24T02:17:18;1.38;;;0.65;;
72113;SDS011;59989;46.220;19.888;2023-05-24T02:20:20;0.88;;;0.32;;
72113;SDS011;59989;46.220;19.888;2023-05-24T02:23:26;1.52;;;0.50;;
72113;SDS011;59989;46.220;19.888;2023-05-24T02:26:29;0.93;;;0.30;;
72113;SDS011;59989;46.220;19.888;2023-05-24T02:29:32;1.00;;;0.40;;
72113;SDS011;59989;46.220;19.888;2023-05-24T02:32:35;0.70;;;0.30;;
72113;SDS011;59989;46.220;19.888;2023-05-24T02:35:38;0.95;;;0.30;;
72113;SDS011;59989;46.220;19.888;2023-05-24T02:38:42;1.02;;;0.38;;
72113;SDS011;59989;46.220;19.888;2023-05-24T02:41:45;0.87;;;0.33;;
72113;SDS011;59989;46.220;19.888;2023-05-24T02:44:47;1.02;;;0.32;;
72113;SDS011;59989;46.220;19.888;2023-05-24T02:47:50;1.15;;;0.40;;
72113;SDS011;59989;46.220;19.888;2023-05-24T02:50:53;0.70;;;0.20;;
72113;SDS011;59989;46.220;19.888;2023-05-24T02:53:55;0.88;;;0.35;;
72113;SDS011;59989;46.220;19.888;2023-05-24T02:56:58;1.03;;;0.40;;
72113;SDS011;59989;46.220;19.888;2023-05-24T03:00:03;0.85;;;0.30;;
72113;SDS011;59989;46.220;19.888;2023-05-24T03:03:09;0.75;;;0.30;;
72113;SDS011;59989;46.220;19.888;2023-05-24T03:06:12;0.90;;;0.30;;
72113;SDS011;59989;46.220;19.888;2023-05-24T03:09:19;1.10;;;0.40;;
72113;SDS011;59989;46.220;19.888;2023-05-24T03:12:22;1.27;;;0.50;;
72113;SDS011;59989;46.220;19.888;2023-05-24T03:15:25;1.10;;;0.40;;
72113;SDS011;59989;46.220;19.888;2023-05-24T03:18:27;1.58;;;0.52;;
72113;SDS011;59989;46.220;19.888;2023-05-24T03:21:30;1.23;;;0.32;;
72113;SDS011;59989;46.220;19.888;2023-05-24T03:24:33;1.33;;;0.35;;
72113;SDS011;59989;46.220;19.888;2023-05-24T03:27:36;1.27;;;0.40;;
72113;SDS011;59989;46.220;19.888;2023-05-24T03:30:38;0.70;;;0.22;;
72113;SDS011;59989;46.220;19.888;2023-05-24T03:33:41;1.00;;;0.30;;
72113;SDS011;59989;46.220;19.888;2023-05-24T03:36:45;0.80;;;0.30;;
72113;SDS011;59989;46.220;19.888;2023-05-24T03:39:48;1.52;;;0.93;;
72113;SDS011;59989;46.220;19.888;2023-05-24T03:43:20;0.93;;;0.30;;
72113;SDS011;59989;46.220;19.888;2023-05-24T03:46:28;1.02;;;0.32;;
72113;SDS011;59989;46.220;19.888;2023-05-24T03:49:31;0.75;;;0.30;;
72113;SDS011;59989;46.220;19.888;2023-05-24T03:52:33;1.40;;;0.65;;
72113;SDS011;59989;46.220;19.888;2023-05-24T03:55:37;0.90;;;0.40;;
72113;SDS011;59989;46.220;19.888;2023-05-24T03:58:40;0.80;;;0.30;;
72113;SDS011;59989;46.220;19.888;2023-05-24T04:01:42;0.70;;;0.30;;
72113;SDS011;59989;46.220;19.888;2023-05-24T04:04:45;1.10;;;0.40;;
72113;SDS011;59989;46.220;19.888;2023-05-24T04:07:48;1.10;;;0.40;;
72113;SDS011;59989;46.220;19.888;2023-05-24T04:10:52;1.10;;;0.40;;
72113;SDS011;59989;46.220;19.888;2023-05-24T04:13:56;0.90;;;0.30;;
72113;SDS011;59989;46.220;19.888;2023-05-24T04:17:01;1.15;;;0.30;;
72113;SDS011;59989;46.220;19.888;2023-05-24T04:20:06;1.20;;;0.40;;
72113;SDS011;59989;46.220;19.888;2023-05-24T04:23:10;1.58;;;0.65;;
72113;SDS011;59989;46.220;19.888;2023-05-24T04:26:13;1.40;;;0.52;;
72113;SDS011;59989;46.220;19.888;2023-05-24T04:29:16;1.13;;;0.40;;
72113;SDS011;59989;46.220;19.888;2023-05-24T04:32:20;1.15;;;0.40;;
72113;SDS011;59989;46.220;19.888;2023-05-24T04:35:23;1.23;;;0.47;;
72113;SDS011;59989;46.220;19.888;2023-05-24T04:38:29;1.45;;;0.60;;
72113;SDS011;59989;46.220;19.888;2023-05-24T04:41:33;1.75;;;0.57;;
72113;SDS011;59989;46.220;19.888;2023-05-24T04:44:39;1.77;;;0.73;;
72113;SDS011;59989;46.220;19.888;2023-05-24T04:47:42;2.45;;;0.98;;
72113;SDS011;59989;46.220;19.888;2023-05-24T04:50:45;2.08;;;0.70;;
72113;SDS011;59989;46.220;19.888;2023-05-24T04:53:47;1.00;;;0.30;;
72113;SDS011;59989;46.220;19.888;2023-05-24T04:56:50;1.40;;;0.50;;
72113;SDS011;59989;46.220;19.888;2023-05-24T04:59:53;1.27;;;0.50;;
72113;SDS011;59989;46.220;19.888;2023-05-24T05:02:55;1.00;;;0.35;;
72113;SDS011;59989;46.220;19.888;2023-05-24T05:05:58;3.05;;;0.40;;
72113;SDS011;59989;46.220;19.888;2023-05-24T05:09:00;1.00;;;0.40;;
72113;SDS011;59989;46.220;19.888;2023-05-24T05:12:03;1.40;;;0.60;;
72113;SDS011;59989;46.220;19.888;2023-05-24T05:15:06;1.10;;;0.40;;
72113;SDS011;59989;46.220;19.888;2023-05-24T05:18:09;1.55;;;0.50;;
72113;SDS011;59989;46.220;19.888;2023-05-24T05:21:12;1.40;;;0.45;;
72113;SDS011;59989;46.220;19.888;2023-05-24T05:24:14;1.30;;;0.40;;
72113;SDS011;59989;46.220;19.888;2023-05-24T05:27:17;1.42;;;0.55;;
72113;SDS011;59989;46.220;19.888;2023-05-24T05:30:20;1.30;;;0.30;;
72113;SDS011;59989;46.220;19.888;2023-05-24T05:33:23;1.42;;;0.50;;
72113;SDS011;59989;46.220;19.888;2023-05-24T05:36:26;1.23;;;0.40;;
72113;SDS011;59989;46.220;19.888;2023-05-24T05:39:28;1.27;;;0.60;;
72113;SDS011;59989;46.220;19.888;2023-05-24T05:42:32;1.75;;;0.57;;
72113;SDS011;59989;46.220;19.888;2023-05-24T05:45:35;1.10;;;0.40;;
72113;SDS011;59989;46.220;19.888;2023-05-24T05:48:37;1.50;;;0.75;;
72113;SDS011;59989;46.220;19.888;2023-05-24T05:51:40;1.98;;;0.80;;
72113;SDS011;59989;46.220;19.888;2023-05-24T05:54:43;1.77;;;0.57;;
72113;SDS011;59989;46.220;19.888;2023-05-24T05:57:45;0.95;;;0.35;;
72113;SDS011;59989;46.220;19.888;2023-05-24T06:00:48;1.43;;;0.40;;
72113;SDS011;59989;46.220;19.888;2023-05-24T06:03:51;1.50;;;0.50;;
72113;SDS011;59989;46.220;19.888;2023-05-24T06:06:53;1.50;;;0.55;;
72113;SDS011;59989;46.220;19.888;2023-05-24T06:09:57;1.38;;;0.50;;
72113;SDS011;59989;46.220;19.888;2023-05-24T06:13:01;1.00;;;0.40;;
72113;SDS011;59989;46.220;19.888;2023-05-24T06:16:04;1.83;;;0.83;;
72113;SDS011;59989;46.220;19.888;2023-05-24T06:19:09;2.55;;;1.08;;
72113;SDS011;59989;46.220;19.888;2023-05-24T06:22:12;1.45;;;0.50;;
72113;SDS011;59989;46.220;19.888;2023-05-24T06:25:14;1.50;;;0.65;;
72113;SDS011;59989;46.220;19.888;2023-05-24T06:28:20;1.00;;;0.40;;
72113;SDS011;59989;46.220;19.888;2023-05-24T06:31:23;1.73;;;0.70;;
72113;SDS011;59989;46.220;19.888;2023-05-24T06:34:26;2.83;;;1.48;;
72113;SDS011;59989;46.220;19.888;2023-05-24T06:37:30;1.83;;;0.80;;
72113;SDS011;59989;46.220;19.888;2023-05-24T06:40:34;1.70;;;0.50;;
72113;SDS011;59989;46.220;19.888;2023-05-24T06:43:37;2.42;;;0.95;;
72113;SDS011;59989;46.220;19.888;2023-05-24T06:46:39;1.83;;;0.60;;
72113;SDS011;59989;46.220;19.888;2023-05-24T06:49:43;2.35;;;0.65;;
72113;SDS011;59989;46.220;19.888;2023-05-24T06:52:46;1.42;;;0.50;;
72113;SDS011;59989;46.220;19.888;2023-05-24T06:55:48;1.58;;;0.50;;
72113;SDS011;59989;46.220;19.888;2023-05-24T06:58:51;1.52;;;0.50;;
72113;SDS011;59989;46.220;19.888;2023-05-24T07:01:53;1.53;;;0.50;;
72113;SDS011;59989;46.220;19.888;2023-05-24T07:05:02;1.98;;;1.05;;
72113;SDS011;59989;46.220;19.888;2023-05-24T07:08:05;2.47;;;1.17;;
72113;SDS011;59989;46.220;19.888;2023-05-24T07:11:08;1.40;;;0.50;;
72113;SDS011;59989;46.220;19.888;2023-05-24T07:14:10;3.90;;;1.00;;
72113;SDS011;59989;46.220;19.888;2023-05-24T07:17:13;1.97;;;0.70;;
72113;SDS011;59989;46.220;19.888;2023-05-24T07:20:16;2.17;;;0.70;;
72113;SDS011;59989;46.220;19.888;2023-05-24T07:23:27;2.22;;;0.82;;
72113;SDS011;59989;46.220;19.888;2023-05-24T07:26:29;1.52;;;0.52;;
72113;SDS011;59989;46.220;19.888;2023-05-24T07:29:32;1.60;;;0.60;;
72113;SDS011;59989;46.220;19.888;2023-05-24T07:32:35;2.53;;;0.70;;
72113;SDS011;59989;46.220;19.888;2023-05-24T07:35:38;1.75;;;0.63;;
72113;SDS011;59989;46.220;19.888;2023-05-24T07:38:41;1.27;;;0.50;;
72113;SDS011;59989;46.220;19.888;2023-05-24T07:41:44;1.30;;;0.40;;
72113;SDS011;59989;46.220;19.888;2023-05-24T07:44:47;1.65;;;0.60;;
72113;SDS011;59989;46.220;19.888;2023-05-24T07:47:50;1.30;;;0.50;;
72113;SDS011;59989;46.220;19.888;2023-05-24T07:50:57;1.52;;;0.57;;
72113;SDS011;59989;46.220;19.888;2023-05-24T07:53:59;2.20;;;0.95;;
72113;SDS011;59989;46.220;19.888;2023-05-24T07:57:02;2.10;;;0.55;;
72113;SDS011;59989;46.220;19.888;2023-05-24T08:00:09;2.08;;;0.73;;
72113;SDS011;59989;46.220;19.888;2023-05-24T08:03:15;1.53;;;0.60;;
72113;SDS011;59989;46.220;19.888;2023-05-24T08:06:19;2.33;;;0.90;;
72113;SDS011;59989;46.220;19.888;2023-05-24T08:09:21;1.63;;;0.52;;
72113;SDS011;59989;46.220;19.888;2023-05-24T08:12:24;1.13;;;0.43;;
72113;SDS011;59989;46.220;19.888;2023-05-24T08:15:27;1.80;;;0.70;;
72113;SDS011;59989;46.220;19.888;2023-05-24T08:18:29;1.80;;;0.73;;
72113;SDS011;59989;46.220;19.888;2023-05-24T08:21:32;2.35;;;0.88;;
72113;SDS011;59989;46.220;19.888;2023-05-24T08:24:35;1.70;;;0.60;;
72113;SDS011;59989;46.220;19.888;2023-05-24T08:27:37;2.92;;;1.30;;
72113;SDS011;59989;46.220;19.888;2023-05-24T08:30:41;1.80;;;0.73;;
72113;SDS011;59989;46.220;19.888;2023-05-24T08:33:44;1.53;;;0.53;;
72113;SDS011;59989;46.220;19.888;2023-05-24T08:36:51;2.30;;;0.75;;
72113;SDS011;59989;46.220;19.888;2023-05-24T08:39:54;1.50;;;0.50;;
72113;SDS011;59989;46.220;19.888;2023-05-24T08:42:58;1.55;;;0.55;;
72113;SDS011;59989;46.220;19.888;2023-05-24T08:46:04;2.25;;;0.73;;
72113;SDS011;59989;46.220;19.888;2023-05-24T08:49:08;1.50;;;0.53;;
72113;SDS011;59989;46.220;19.888;2023-05-24T08:52:13;2.50;;;1.00;;
72113;SDS011;59989;46.220;19.888;2023-05-24T08:55:19;1.95;;;0.75;;
72113;SDS011;59989;46.220;19.888;2023-05-24T08:58:23;1.45;;;0.50;;
72113;SDS011;59989;46.220;19.888;2023-05-24T09:01:25;2.17;;;0.77;;
72113;SDS011;59989;46.220;19.888;2023-05-24T09:04:32;1.70;;;0.50;;
72113;SDS011;59989;46.220;19.888;2023-05-24T09:07:35;1.63;;;0.60;;
72113;SDS011;59989;46.220;19.888;2023-05-24T09:10:38;3.58;;;1.15;;
72113;SDS011;59989;46.220;19.888;2023-05-24T09:13:56;2.00;;;0.70;;
72113;SDS011;59989;46.220;19.888;2023-05-24T09:16:58;1.85;;;0.75;;
72113;SDS011;59989;46.220;19.888;2023-05-24T09:20:02;1.73;;;0.57;;
72113;SDS011;59989;46.220;19.888;2023-05-24T09:23:11;2.28;;;0.85;;
72113;SDS011;59989;46.220;19.888;2023-05-24T09:26:14;2.28;;;0.75;;
72113;SDS011;59989;46.220;19.888;2023-05-24T09:29:21;2.25;;;0.77;;
72113;SDS011;59989;46.220;19.888;2023-05-24T09:32:25;2.95;;;1.25;;
72113;SDS011;59989;46.220;19.888;2023-05-24T09:35:29;1.73;;;0.60;;
72113;SDS011;59989;46.220;19.888;2023-05-24T09:38:32;1.98;;;0.75;;
72113;SDS011;59989;46.220;19.888;2023-05-24T09:41:37;2.50;;;1.15;;
72113;SDS011;59989;46.220;19.888;2023-05-24T09:44:40;3.85;;;0.90;;
72113;SDS011;59989;46.220;19.888;2023-05-24T09:47:43;2.88;;;1.13;;
72113;SDS011;59989;46.220;19.888;2023-05-24T09:50:56;1.57;;;0.57;;
72113;SDS011;59989;46.220;19.888;2023-05-24T09:54:04;2.05;;;1.00;;
72113;SDS011;59989;46.220;19.888;2023-05-24T09:57:06;2.22;;;0.80;;
72113;SDS011;59989;46.220;19.888;2023-05-24T10:00:09;1.90;;;0.60;;
72113;SDS011;59989;46.220;19.888;2023-05-24T10:03:18;2.60;;;1.15;;
72113;SDS011;59989;46.220;19.888;2023-05-24T10:06:21;1.90;;;0.63;;
72113;SDS011;59989;46.220;19.888;2023-05-24T10:09:25;2.35;;;1.05;;
72113;SDS011;59989;46.220;19.888;2023-05-24T10:12:35;2.00;;;0.70;;
72113;SDS011;59989;46.220;19.888;2023-05-24T10:15:40;1.85;;;0.68;;
72113;SDS011;59989;46.220;19.888;2023-05-24T10:18:43;2.10;;;0.80;;
72113;SDS011;59989;46.220;19.888;2023-05-24T10:21:46;2.10;;;0.83;;
72113;SDS011;59989;46.220;19.888;2023-05-24T10:24:52;1.88;;;0.63;;
72113;SDS011;59989;46.220;19.888;2023-05-24T10:28:00;2.30;;;0.80;;
72113;SDS011;59989;46.220;19.888;2023-05-24T10:31:13;2.00;;;0.75;;
72113;SDS011;59989;46.220;19.888;2023-05-24T10:34:19;2.72;;;1.25;;
72113;SDS011;59989;46.220;19.888;2023-05-24T10:37:23;2.20;;;0.80;;
72113;SDS011;59989;46.220;19.888;2023-05-24T10:40:27;2.33;;;0.90;;
72113;SDS011;59989;46.220;19.888;2023-05-24T10:43:30;2.70;;;0.93;;
72113;SDS011;59989;46.220;19.888;2023-05-24T10:46:32;2.17;;;0.73;;
72113;SDS011;59989;46.220;19.888;2023-05-24T10:49:36;2.63;;;1.00;;
72113;SDS011;59989;46.220;19.888;2023-05-24T10:53:15;1.70;;;0.60;;
72113;SDS011;59989;46.220;19.888;2023-05-24T10:56:20;2.47;;;1.15;;
72113;SDS011;59989;46.220;19.888;2023-05-24T11:02:33;2.25;;;0.80;;
72113;SDS011;59989;46.220;19.888;2023-05-24T11:08:51;2.93;;;1.00;;
72113;SDS011;59989;46.220;19.888;2023-05-24T11:11:56;3.03;;;1.20;;
72113;SDS011;59989;46.220;19.888;2023-05-24T11:15:03;2.28;;;0.80;;
72113;SDS011;59989;46.220;19.888;2023-05-24T11:21:13;2.75;;;0.98;;
72113;SDS011;59989;46.220;19.888;2023-05-24T11:24:16;2.80;;;1.17;;
72113;SDS011;59989;46.220;19.888;2023-05-24T11:27:20;2.60;;;0.90;;
72113;SDS011;59989;46.220;19.888;2023-05-24T11:30:23;2.40;;;0.98;;
72113;SDS011;59989;46.220;19.888;2023-05-24T11:33:26;2.08;;;0.70;;
72113;SDS011;59989;46.220;19.888;2023-05-24T11:36:28;2.53;;;1.10;;
72113;SDS011;59989;46.220;19.888;2023-05-24T11:39:31;2.53;;;0.87;;
72113;SDS011;59989;46.220;19.888;2023-05-24T11:42:36;2.28;;;0.90;;
72113;SDS011;59989;46.220;19.888;2023-05-24T11:45:41;2.38;;;0.85;;
72113;SDS011;59989;46.220;19.888;2023-05-24T11:48:53;2.58;;;1.00;;
72113;SDS011;59989;46.220;19.888;2023-05-24T11:51:58;2.83;;;1.17;;
72113;SDS011;59989;46.220;19.888;2023-05-24T11:55:01;3.07;;;1.30;;
72113;SDS011;59989;46.220;19.888;2023-05-24T11:58:09;2.80;;;1.00;;
72113;SDS011;59989;46.220;19.888;2023-05-24T12:01:22;2.55;;;0.90;;
72113;SDS011;59989;46.220;19.888;2023-05-24T12:04:26;1.98;;;0.80;;
72113;SDS011;59989;46.220;19.888;2023-05-24T12:07:30;2.70;;;0.88;;
72113;SDS011;59989;46.220;19.888;2023-05-24T12:10:35;2.63;;;0.70;;
72113;SDS011;59989;46.220;19.888;2023-05-24T12:13:39;1.90;;;0.70;;
72113;SDS011;59989;46.220;19.888;2023-05-24T12:16:43;1.95;;;0.73;;
72113;SDS011;59989;46.220;19.888;2023-05-24T12:19:47;2.60;;;0.95;;
72113;SDS011;59989;46.220;19.888;2023-05-24T12:22:52;3.00;;;1.05;;
72113;SDS011;59989;46.220;19.888;2023-05-24T12:25:59;2.50;;;0.90;;
72113;SDS011;59989;46.220;19.888;2023-05-24T12:29:02;2.38;;;0.77;;
72113;SDS011;59989;46.220;19.888;2023-05-24T12:32:06;2.47;;;0.90;;
72113;SDS011;59989;46.220;19.888;2023-05-24T12:35:18;1.90;;;0.60;;
72113;SDS011;59989;46.220;19.888;2023-05-24T12:38:22;2.75;;;0.95;;
72113;SDS011;59989;46.220;19.888;2023-05-24T12:41:27;2.70;;;1.00;;
72113;SDS011;59989;46.220;19.888;2023-05-24T12:44:34;2.50;;;1.00;;
72113;SDS011;59989;46.220;19.888;2023-05-24T12:47:38;3.75;;;1.30;;
72113;SDS011;59989;46.220;19.888;2023-05-24T12:50:41;3.17;;;1.30;;
72113;SDS011;59989;46.220;19.888;2023-05-24T12:53:43;3.00;;;1.27;;
72113;SDS011;59989;46.220;19.888;2023-05-24T12:56:46;3.07;;;1.20;;
72113;SDS011;59989;46.220;19.888;2023-05-24T12:59:49;2.90;;;1.15;;
72113;SDS011;59989;46.220;19.888;2023-05-24T13:02:52;3.15;;;1.27;;
72113;SDS011;59989;46.220;19.888;2023-05-24T13:05:57;3.13;;;1.17;;
72113;SDS011;59989;46.220;19.888;2023-05-24T13:09:01;3.60;;;1.50;;
72113;SDS011;59989;46.220;19.888;2023-05-24T13:12:03;3.77;;;1.60;;
72113;SDS011;59989;46.220;19.888;2023-05-24T13:15:07;4.45;;;1.70;;
72113;SDS011;59989;46.220;19.888;2023-05-24T13:18:10;3.60;;;1.45;;
72113;SDS011;59989;46.220;19.888;2023-05-24T13:21:12;3.70;;;1.50;;
72113;SDS011;59989;46.220;19.888;2023-05-24T13:24:15;3.35;;;1.30;;
72113;SDS011;59989;46.220;19.888;2023-05-24T13:27:18;2.40;;;0.80;;
72113;SDS011;59989;46.220;19.888;2023-05-24T13:30:20;2.10;;;0.80;;
72113;SDS011;59989;46.220;19.888;2023-05-24T13:33:30;2.78;;;1.00;;
72113;SDS011;59989;46.220;19.888;2023-05-24T13:36:35;2.35;;;0.80;;
72113;SDS011;59989;46.220;19.888;2023-05-24T13:39:39;2.65;;;1.10;;
72113;SDS011;59989;46.220;19.888;2023-05-24T13:42:41;2.50;;;0.90;;
72113;SDS011;59989;46.220;19.888;2023-05-24T13:45:44;2.25;;;0.90;;
72113;SDS011;59989;46.220;19.888;2023-05-24T13:48:47;2.15;;;0.70;;
72113;SDS011;59989;46.220;19.888;2023-05-24T13:51:50;2.85;;;1.15;;
72113;SDS011;59989;46.220;19.888;2023-05-24T13:54:56;2.60;;;0.77;;
72113;SDS011;59989;46.220;19.888;2023-05-24T13:57:59;1.67;;;0.60;;
72113;SDS011;59989;46.220;19.888;2023-05-24T14:01:04;2.15;;;0.82;;
72113;SDS011;59989;46.220;19.888;2023-05-24T14:04:08;2.67;;;1.05;;
72113;SDS011;59989;46.220;19.888;2023-05-24T14:07:12;3.50;;;1.40;;
72113;SDS011;59989;46.220;19.888;2023-05-24T14:10:16;3.42;;;1.30;;
72113;SDS011;59989;46.220;19.888;2023-05-24T14:13:23;3.40;;;1.40;;
72113;SDS011;59989;46.220;19.888;2023-05-24T14:16:47;3.63;;;1.50;;
72113;SDS011;59989;46.220;19.888;2023-05-24T14:19:53;3.92;;;1.70;;
72113;SDS011;59989;46.220;19.888;2023-05-24T14:22:55;4.65;;;2.00;;
72113;SDS011;59989;46.220;19.888;2023-05-24T14:26:00;4.35;;;1.85;;
72113;SDS011;59989;46.220;19.888;2023-05-24T14:29:02;4.40;;;1.93;;
72113;SDS011;59989;46.220;19.888;2023-05-24T14:32:05;4.63;;;2.08;;
72113;SDS011;59989;46.220;19.888;2023-05-24T14:35:08;4.18;;;1.77;;
72113;SDS011;59989;46.220;19.888;2023-05-24T14:38:10;4.57;;;2.10;;
72113;SDS011;59989;46.220;19.888;2023-05-24T14:41:13;3.25;;;1.38;;
72113;SDS011;59989;46.220;19.888;2023-05-24T14:44:16;3.70;;;1.57;;
72113;SDS011;59989;46.220;19.888;2023-05-24T14:47:20;4.35;;;1.90;;
72113;SDS011;59989;46.220;19.888;2023-05-24T14:50:22;3.47;;;1.45;;
72113;SDS011;59989;46.220;19.888;2023-05-24T14:53:25;3.28;;;1.10;;
72113;SDS011;59989;46.220;19.888;2023-05-24T14:56:27;2.90;;;1.20;;
72113;SDS011;59989;46.220;19.888;2023-05-24T14:59:30;2.73;;;0.93;;
72113;SDS011;59989;46.220;19.888;2023-05-24T15:02:32;2.40;;;0.98;;
72113;SDS011;59989;46.220;19.888;2023-05-24T15:05:35;5.00;;;1.02;;
72113;SDS011;59989;46.220;19.888;2023-05-24T15:08:38;2.35;;;0.80;;
72113;SDS011;59989;46.220;19.888;2023-05-24T15:11:41;3.15;;;1.23;;
72113;SDS011;59989;46.220;19.888;2023-05-24T15:14:44;3.43;;;1.67;;
72113;SDS011;59989;46.220;19.888;2023-05-24T15:17:47;3.20;;;1.30;;
72113;SDS011;59989;46.220;19.888;2023-05-24T15:20:49;4.07;;;1.70;;
72113;SDS011;59989;46.220;19.888;2023-05-24T15:23:52;1.90;;;0.70;;
72113;SDS011;59989;46.220;19.888;2023-05-24T15:26:55;2.60;;;1.23;;
72113;SDS011;59989;46.220;19.888;2023-05-24T15:29:58;1.70;;;0.53;;
72113;SDS011;59989;46.220;19.888;2023-05-24T15:33:01;3.10;;;1.27;;
72113;SDS011;59989;46.220;19.888;2023-05-24T15:36:03;3.33;;;1.55;;
72113;SDS011;59989;46.220;19.888;2023-05-24T15:39:06;1.60;;;0.60;;
72113;SDS011;59989;46.220;19.888;2023-05-24T15:42:08;2.60;;;0.75;;
72113;SDS011;59989;46.220;19.888;2023-05-24T15:45:11;2.70;;;1.07;;
72113;SDS011;59989;46.220;19.888;2023-05-24T15:48:14;3.28;;;1.40;;
72113;SDS011;59989;46.220;19.888;2023-05-24T15:51:17;4.00;;;1.60;;
72113;SDS011;59989;46.220;19.888;2023-05-24T15:54:40;3.28;;;1.27;;
72113;SDS011;59989;46.220;19.888;2023-05-24T15:57:43;3.60;;;1.55;;
72113;SDS011;59989;46.220;19.888;2023-05-24T16:00:45;3.83;;;1.60;;
72113;SDS011;59989;46.220;19.888;2023-05-24T16:03:48;2.10;;;0.80;;
72113;SDS011;59989;46.220;19.888;2023-05-24T16:06:50;2.15;;;0.80;;
72113;SDS011;59989;46.220;19.888;2023-05-24T16:09:53;3.42;;;1.45;;
72113;SDS011;59989;46.220;19.888;2023-05-24T16:12:56;2.58;;;1.00;;
72113;SDS011;59989;46.220;19.888;2023-05-24T16:15:59;2.87;;;1.10;;
72113;SDS011;59989;46.220;19.888;2023-05-24T16:19:02;1.98;;;0.80;;
72113;SDS011;59989;46.220;19.888;2023-05-24T16:22:05;2.95;;;1.10;;
72113;SDS011;59989;46.220;19.888;2023-05-24T16:25:08;2.75;;;0.77;;
72113;SDS011;59989;46.220;19.888;2023-05-24T16:28:11;3.13;;;1.20;;
72113;SDS011;59989;46.220;19.888;2023-05-24T16:31:13;2.47;;;0.97;;
72113;SDS011;59989;46.220;19.888;2023-05-24T16:34:17;3.13;;;1.33;;
72113;SDS011;59989;46.220;19.888;2023-05-24T16:37:19;2.60;;;1.00;;
72113;SDS011;59989;46.220;19.888;2023-05-24T16:40:22;3.00;;;1.20;;
72113;SDS011;59989;46.220;19.888;2023-05-24T16:43:24;3.65;;;1.27;;
72113;SDS011;59989;46.220;19.888;2023-05-24T16:46:27;3.30;;;1.30;;
72113;SDS011;59989;46.220;19.888;2023-05-24T16:49:29;2.10;;;0.80;;
72113;SDS011;59989;46.220;19.888;2023-05-24T16:52:32;2.97;;;1.10;;
72113;SDS011;59989;46.220;19.888;2023-05-24T16:55:34;2.65;;;0.98;;
72113;SDS011;59989;46.220;19.888;2023-05-24T16:58:37;2.42;;;0.80;;
72113;SDS011;59989;46.220;19.888;2023-05-24T17:01:39;3.30;;;1.40;;
72113;SDS011;59989;46.220;19.888;2023-05-24T17:04:42;2.47;;;0.90;;
72113;SDS011;59989;46.220;19.888;2023-05-24T17:07:44;2.00;;;0.75;;
72113;SDS011;59989;46.220;19.888;2023-05-24T17:10:47;2.97;;;1.08;;
72113;SDS011;59989;46.220;19.888;2023-05-24T17:13:56;2.10;;;0.70;;
72113;SDS011;59989;46.220;19.888;2023-05-24T17:16:59;2.40;;;0.90;;
72113;SDS011;59989;46.220;19.888;2023-05-24T17:20:01;2.53;;;0.93;;
72113;SDS011;59989;46.220;19.888;2023-05-24T17:23:05;1.30;;;0.40;;
72113;SDS011;59989;46.220;19.888;2023-05-24T17:26:07;1.45;;;0.50;;
72113;SDS011;59989;46.220;19.888;2023-05-24T17:29:10;3.08;;;1.00;;
72113;SDS011;59989;46.220;19.888;2023-05-24T17:32:13;2.47;;;0.60;;
72113;SDS011;59989;46.220;19.888;2023-05-24T17:35:15;2.15;;;0.85;;
72113;SDS011;59989;46.220;19.888;2023-05-24T17:38:18;2.05;;;0.70;;
72113;SDS011;59989;46.220;19.888;2023-05-24T17:41:21;1.52;;;0.45;;
72113;SDS011;59989;46.220;19.888;2023-05-24T17:44:24;2.08;;;0.77;;
72113;SDS011;59989;46.220;19.888;2023-05-24T17:47:26;2.23;;;0.80;;
72113;SDS011;59989;46.220;19.888;2023-05-24T17:50:29;2.13;;;0.68;;
72113;SDS011;59989;46.220;19.888;2023-05-24T17:53:32;2.17;;;0.60;;
72113;SDS011;59989;46.220;19.888;2023-05-24T17:56:35;1.30;;;0.40;;
72113;SDS011;59989;46.220;19.888;2023-05-24T17:59:38;1.50;;;0.60;;
72113;SDS011;59989;46.220;19.888;2023-05-24T18:02:40;1.20;;;0.40;;
72113;SDS011;59989;46.220;19.888;2023-05-24T18:05:43;1.40;;;0.50;;
72113;SDS011;59989;46.220;19.888;2023-05-24T18:08:46;1.23;;;0.50;;
72113;SDS011;59989;46.220;19.888;2023-05-24T18:11:48;1.02;;;0.38;;
72113;SDS011;59989;46.220;19.888;2023-05-24T18:14:52;1.48;;;0.50;;
72113;SDS011;59989;46.220;19.888;2023-05-24T18:17:54;1.30;;;0.50;;
72113;SDS011;59989;46.220;19.888;2023-05-24T18:20:57;1.27;;;0.40;;
72113;SDS011;59989;46.220;19.888;2023-05-24T18:24:00;1.30;;;0.45;;
72113;SDS011;59989;46.220;19.888;2023-05-24T18:27:02;1.63;;;0.50;;
72113;SDS011;59989;46.220;19.888;2023-05-24T18:30:05;1.58;;;0.45;;
72113;SDS011;59989;46.220;19.888;2023-05-24T18:33:08;0.90;;;0.30;;
72113;SDS011;59989;46.220;19.888;2023-05-24T18:36:11;1.92;;;0.55;;
72113;SDS011;59989;46.220;19.888;2023-05-24T18:39:14;1.10;;;0.40;;